createdAt,value
2023-12-08T00:00:40.469Z,93649.00
2023-12-08T00:01:37.096Z,93648.44
2023-12-08T00:02:34.084Z,93647.44
2023-12-08T00:03:30.766Z,93652.63
2023-12-08T00:04:27.590Z,93651.91
2023-12-08T00:05:24.286Z,93652.56
2023-12-08T00:06:21.538Z,93650.72
2023-12-08T00:07:18.228Z,93650.91
2023-12-08T00:08:14.819Z,93647.31
2023-12-08T00:09:11.441Z,93656.94
2023-12-08T00:10:08.385Z,93646.72
2023-12-08T00:11:06.419Z,93648.56
2023-12-08T00:12:03.549Z,93652.81
2023-12-08T00:13:00.586Z,93652.03
2023-12-08T00:13:57.236Z,93650.38
2023-12-08T00:14:54.052Z,93650.44
2023-12-08T00:15:50.734Z,93651.50
2023-12-08T00:16:47.351Z,93647.66
2023-12-08T00:17:44.572Z,93652.91
2023-12-08T00:18:41.498Z,93646.78
2023-12-08T00:19:38.790Z,93638.44
2023-12-08T00:20:35.580Z,93654.03
2023-12-08T00:21:32.216Z,93653.78
2023-12-08T00:22:28.867Z,93654.03
2023-12-08T00:23:25.484Z,93651.19
2023-12-08T00:24:22.178Z,93654.13
2023-12-08T00:25:18.844Z,93652.56
2023-12-08T00:26:15.643Z,93656.03
2023-12-08T00:27:12.364Z,93647.84
2023-12-08T00:28:09.734Z,93648.94
2023-12-08T00:29:06.383Z,93655.97
2023-12-08T00:30:03.105Z,93649.75
2023-12-08T00:30:59.878Z,93657.63
2023-12-08T00:31:56.527Z,93649.41
2023-12-08T00:32:53.528Z,93653.69
2023-12-08T00:33:50.327Z,93653.88
2023-12-08T00:34:47.552Z,93644.31
2023-12-08T00:35:44.257Z,93659.97
2023-12-08T00:36:43.787Z,93652.09
2023-12-08T00:37:40.435Z,93656.03
2023-12-08T00:38:37.057Z,93650.06
2023-12-08T00:39:33.718Z,93656.03
2023-12-08T00:40:30.369Z,93646.66
2023-12-08T00:41:27.212Z,93656.31
2023-12-08T00:42:23.941Z,93652.69
2023-12-08T00:43:20.512Z,93650.53
2023-12-08T00:44:17.514Z,93647.09
2023-12-08T00:45:14.920Z,93651.56
2023-12-08T00:46:11.621Z,93646.59
2023-12-08T00:47:08.232Z,93643.47
2023-12-08T00:48:05.373Z,93641.00
2023-12-08T00:49:02.318Z,93647.22
2023-12-08T00:49:59.109Z,93649.41
2023-12-08T00:50:55.791Z,93639.16
2023-12-08T00:51:52.485Z,93637.44
2023-12-08T00:52:49.103Z,93640.34
2023-12-08T00:53:45.780Z,93641.91
2023-12-08T00:54:42.539Z,93647.44
2023-12-08T00:55:39.207Z,93636.00
2023-12-08T00:56:35.817Z,93643.63
2023-12-08T00:57:32.508Z,93645.81
2023-12-08T00:58:29.237Z,93637.94
2023-12-08T00:59:25.893Z,93632.53
2023-12-08T01:00:22.641Z,93636.44
2023-12-08T01:01:21.046Z,93642.97
2023-12-08T01:02:17.943Z,93639.00
2023-12-08T01:03:15.587Z,93639.06
2023-12-08T01:04:12.481Z,93625.31
2023-12-08T01:05:09.501Z,93634.41
2023-12-08T01:06:06.478Z,93639.22
2023-12-08T01:07:03.304Z,93631.72
2023-12-08T01:07:59.965Z,93639.97
2023-12-08T01:08:56.590Z,93623.13
2023-12-08T01:09:53.320Z,93642.13
2023-12-08T01:10:49.917Z,93637.44
2023-12-08T01:11:46.588Z,93641.63
2023-12-08T01:12:44.558Z,93646.88
2023-12-08T01:13:41.315Z,93645.28
2023-12-08T01:14:38.343Z,93643.25
2023-12-08T01:15:35.008Z,93643.25
2023-12-08T01:16:31.690Z,93644.75
2023-12-08T01:17:28.516Z,93653.09
2023-12-08T01:18:25.386Z,93653.41
2023-12-08T01:19:22.096Z,93646.53
2023-12-08T01:20:18.790Z,93647.66
2023-12-08T01:21:15.411Z,93654.97
2023-12-08T01:22:12.054Z,93656.81
2023-12-08T01:23:08.691Z,93653.69
2023-12-08T01:24:06.459Z,93647.38
2023-12-08T01:25:03.384Z,93652.91
2023-12-08T01:25:59.985Z,93656.81
2023-12-08T01:26:56.757Z,93656.22
2023-12-08T01:27:55.256Z,93652.28
2023-12-08T01:28:51.906Z,93651.56
2023-12-08T01:29:48.591Z,93655.25
2023-12-08T01:30:45.307Z,93651.31
2023-12-08T01:31:41.929Z,93658.84
2023-12-08T01:32:38.704Z,93655.44
2023-12-08T01:33:35.601Z,93652.97
2023-12-08T01:34:32.378Z,93656.94
2023-12-08T01:35:29.056Z,93653.09
2023-12-08T01:36:41.598Z,93643.69
2023-12-08T01:37:40.829Z,93655.19
2023-12-08T01:38:38.081Z,93648.03
2023-12-08T01:39:34.693Z,93656.03
2023-12-08T01:40:31.310Z,93656.09
2023-12-08T01:41:27.913Z,93654.47
2023-12-08T01:42:24.781Z,93644.25
2023-12-08T01:43:21.465Z,93656.38
2023-12-08T01:44:18.182Z,93650.78
2023-12-08T01:45:15.156Z,93647.50
2023-12-08T01:46:19.049Z,93654.47
2023-12-08T01:47:16.650Z,93649.72
2023-12-08T01:48:13.609Z,93641.84
2023-12-08T01:49:10.822Z,93635.03
2023-12-08T01:50:09.707Z,93648.97
2023-12-08T01:51:06.805Z,93644.75
2023-12-08T01:52:04.128Z,93644.63
2023-12-08T01:53:01.235Z,93641.47
2023-12-08T01:53:58.149Z,93640.22
2023-12-08T01:54:57.897Z,93644.25
2023-12-08T01:55:54.952Z,93640.56
2023-12-08T01:56:51.763Z,93638.53
2023-12-08T01:57:48.604Z,93639.06
2023-12-08T01:58:45.792Z,93639.38
2023-12-08T01:59:42.668Z,93641.84
2023-12-08T02:00:40.642Z,93635.03
2023-12-08T02:01:38.024Z,93633.41
2023-12-08T02:02:35.967Z,93623.25
2023-12-08T02:03:36.647Z,93632.06
2023-12-08T02:04:33.461Z,93636.25
2023-12-08T02:05:31.710Z,93631.97
2023-12-08T02:06:28.481Z,93628.84
2023-12-08T02:07:26.509Z,93635.19
2023-12-08T02:08:23.654Z,93631.56
2023-12-08T02:09:21.296Z,93638.94
2023-12-08T02:10:18.028Z,93631.63
2023-12-08T02:11:17.842Z,93626.72
2023-12-08T02:12:15.254Z,93639.63
2023-12-08T02:13:17.394Z,93634.44
2023-12-08T02:14:15.090Z,93639.72
2023-12-08T02:15:13.732Z,93646.81
2023-12-08T02:16:19.366Z,93642.47
2023-12-08T02:17:29.600Z,93646.16
2023-12-08T02:18:27.508Z,93648.72
2023-12-08T02:19:25.346Z,93623.91
2023-12-08T02:20:22.433Z,93650.34
2023-12-08T02:21:19.924Z,93656.31
2023-12-08T02:22:22.842Z,93652.63
2023-12-08T02:23:19.487Z,93655.88
2023-12-08T02:24:20.537Z,93659.13
2023-12-08T02:25:17.337Z,93654.38
2023-12-08T02:26:14.067Z,93657.91
2023-12-08T02:27:12.366Z,93649.78
2023-12-08T02:28:09.144Z,93649.78
2023-12-08T02:29:09.818Z,93662.19
2023-12-08T02:30:07.735Z,93662.84
2023-12-08T02:31:10.044Z,93664.38
2023-12-08T02:32:24.150Z,93658.06
2023-12-08T02:33:31.111Z,93669.31
2023-12-08T02:34:29.753Z,93647.53
2023-12-08T02:35:28.720Z,93666.72
2023-12-08T02:36:26.871Z,93663.91
2023-12-08T02:37:25.053Z,93642.47
2023-12-08T02:38:22.849Z,93669.72
2023-12-08T02:39:21.498Z,93669.44
2023-12-08T02:40:19.245Z,93660.69
2023-12-08T02:41:16.045Z,93659.63
2023-12-08T02:42:12.912Z,93657.59
2023-12-08T02:43:10.377Z,93650.19
2023-12-08T02:44:07.037Z,93663.09
2023-12-08T02:45:05.071Z,93664.97
2023-12-08T02:46:01.865Z,93670.97
2023-12-08T02:46:58.886Z,93661.41
2023-12-08T02:47:55.576Z,93666.66
2023-12-08T02:48:54.849Z,93653.94
2023-12-08T02:49:52.286Z,93651.13
2023-12-08T02:50:48.953Z,93667.06
2023-12-08T02:51:45.661Z,93664.72
2023-12-08T02:52:42.329Z,93661.63
2023-12-08T02:53:38.954Z,93665.31
2023-12-08T02:54:35.629Z,93661.13
2023-12-08T02:55:32.560Z,93664.19
2023-12-08T02:56:29.218Z,93660.06
2023-12-08T02:57:26.065Z,93668.28
2023-12-08T02:58:22.824Z,93664.47
2023-12-08T02:59:19.482Z,93641.97
2023-12-08T03:00:16.368Z,93667.00
2023-12-08T03:01:13.224Z,93666.69
2023-12-08T03:02:09.911Z,93667.66
2023-12-08T03:03:06.726Z,93670.38
2023-12-08T03:04:03.621Z,93665.91
2023-12-08T03:05:00.303Z,93655.69
2023-12-08T03:05:56.957Z,93669.09
2023-12-08T03:06:53.643Z,93668.72
2023-12-08T03:07:50.235Z,93661.28
2023-12-08T03:08:46.840Z,93661.28
2023-12-08T03:09:43.563Z,93660.22
2023-12-08T03:10:40.202Z,93673.06
2023-12-08T03:11:36.889Z,93663.63
2023-12-08T03:12:33.704Z,93666.88
2023-12-08T03:13:30.326Z,93667.28
2023-12-08T03:14:26.988Z,93651.69
2023-12-08T03:15:24.406Z,93647.56
2023-12-08T03:16:21.050Z,93669.13
2023-12-08T03:17:17.761Z,93668.31
2023-12-08T03:18:14.732Z,93665.72
2023-12-08T03:19:11.477Z,93660.56
2023-12-08T03:20:08.645Z,93662.25
2023-12-08T03:21:05.769Z,93654.31
2023-12-08T03:22:02.504Z,93660.16
2023-12-08T03:22:59.242Z,93646.53
2023-12-08T03:23:55.977Z,93663.34
2023-12-08T03:24:52.680Z,93655.94
2023-12-08T03:25:49.386Z,93654.25
2023-12-08T03:26:47.568Z,93646.53
2023-12-08T03:27:44.220Z,93666.88
2023-12-08T03:28:40.805Z,93660.22
2023-12-08T03:29:41.515Z,93658.50
2023-12-08T03:30:38.243Z,93659.72
2023-12-08T03:31:34.909Z,93663.06
2023-12-08T03:32:32.221Z,93658.53
2023-12-08T03:33:29.115Z,93657.31
2023-12-08T03:34:25.969Z,93654.41
2023-12-08T03:35:22.599Z,93665.75
2023-12-08T03:36:19.464Z,93646.38
2023-12-08T03:37:16.129Z,93657.09
2023-12-08T03:38:12.851Z,93652.91
2023-12-08T03:39:09.520Z,93653.34
2023-12-08T03:40:06.949Z,93656.53
2023-12-08T03:41:03.681Z,93655.25
2023-12-08T03:42:00.337Z,93653.06
2023-12-08T03:42:57.392Z,93633.97
2023-12-08T03:43:54.107Z,93642.75
2023-12-08T03:44:51.602Z,93636.03
2023-12-08T03:45:48.404Z,93647.59
2023-12-08T03:46:45.459Z,93655.59
2023-12-08T03:47:43.012Z,93646.16
2023-12-08T03:48:39.979Z,93640.13
2023-12-08T03:49:36.821Z,93643.16
2023-12-08T03:50:33.582Z,93641.41
2023-12-08T03:51:33.235Z,93641.34
2023-12-08T03:52:30.026Z,93644.81
2023-12-08T03:53:26.681Z,93643.03
2023-12-08T03:54:23.366Z,93647.03
2023-12-08T03:55:19.993Z,93641.56
2023-12-08T03:56:16.619Z,93645.25
2023-12-08T03:57:13.293Z,93641.28
2023-12-08T03:58:09.921Z,93643.78
2023-12-08T03:59:06.611Z,93642.06
2023-12-08T04:00:03.527Z,93631.34
2023-12-08T04:01:00.215Z,93640.00
2023-12-08T04:01:56.923Z,93638.16
2023-12-08T04:02:53.567Z,93635.38
2023-12-08T04:03:50.389Z,93630.13
2023-12-08T04:04:47.167Z,93631.84
2023-12-08T04:05:43.921Z,93627.94
2023-12-08T04:06:40.663Z,93631.00
2023-12-08T04:07:37.315Z,93622.34
2023-12-08T04:08:34.006Z,93626.09
2023-12-08T04:09:30.928Z,93626.09
2023-12-08T04:10:27.532Z,93624.84
2023-12-08T04:11:24.198Z,93628.28
2023-12-08T04:12:21.622Z,93620.81
2023-12-08T04:13:18.467Z,93627.66
2023-12-08T04:14:15.197Z,93621.00
2023-12-08T04:15:11.949Z,93621.09
2023-12-08T04:16:09.321Z,93619.72
2023-12-08T04:17:06.051Z,93614.81
2023-12-08T04:18:03.105Z,93619.78
2023-12-08T04:18:59.922Z,93617.16
2023-12-08T04:19:56.613Z,93621.63
2023-12-08T04:20:53.444Z,93620.84
2023-12-08T04:21:50.172Z,93616.38
2023-12-08T04:22:46.918Z,93614.13
2023-12-08T04:23:43.551Z,93625.31
2023-12-08T04:24:40.178Z,93616.31
2023-12-08T04:25:36.901Z,93617.38
2023-12-08T04:26:33.576Z,93612.28
2023-12-08T04:27:30.202Z,93609.66
2023-12-08T04:28:26.868Z,93609.22
2023-12-08T04:29:23.546Z,93611.28
2023-12-08T04:30:20.281Z,93616.81
2023-12-08T04:31:17.007Z,93602.84
2023-12-08T04:32:13.630Z,93615.47
2023-12-08T04:33:10.720Z,93594.91
2023-12-08T04:34:07.626Z,93620.97
2023-12-08T04:35:04.550Z,93605.97
2023-12-08T04:36:01.208Z,93623.47
2023-12-08T04:36:57.977Z,93624.75
2023-12-08T04:37:54.734Z,93619.50
2023-12-08T04:38:51.453Z,93622.06
2023-12-08T04:39:48.040Z,93630.13
2023-12-08T04:40:46.347Z,93609.31
2023-12-08T04:41:43.701Z,93627.38
2023-12-08T04:42:40.513Z,93633.81
2023-12-08T04:43:37.452Z,93621.31
2023-12-08T04:44:34.539Z,93619.84
2023-12-08T04:45:31.205Z,93622.97
2023-12-08T04:46:27.854Z,93630.47
2023-12-08T04:47:24.932Z,93595.78
2023-12-08T04:48:21.963Z,93618.41
2023-12-08T04:49:19.910Z,93635.44
2023-12-08T04:50:16.832Z,93634.22
2023-12-08T04:51:13.489Z,93643.38
2023-12-08T04:52:10.204Z,93646.78
2023-12-08T04:53:06.811Z,93642.66
2023-12-08T04:54:03.559Z,93644.44
2023-12-08T04:55:02.224Z,93608.88
2023-12-08T04:55:59.148Z,93637.06
2023-12-08T04:56:56.099Z,93641.31
2023-12-08T04:57:52.811Z,93642.94
2023-12-08T04:58:49.532Z,93643.59
2023-12-08T04:59:46.210Z,93650.84
2023-12-08T05:00:42.898Z,93647.44
2023-12-08T05:01:39.540Z,93647.91
2023-12-08T05:02:36.292Z,93651.34
2023-12-08T05:03:33.099Z,93653.22
2023-12-08T05:04:29.888Z,93655.84
2023-12-08T05:05:27.501Z,93640.16
2023-12-08T05:06:27.631Z,93646.09
2023-12-08T05:07:24.708Z,93647.69
2023-12-08T05:08:21.773Z,93646.41
2023-12-08T05:09:18.406Z,93644.34
2023-12-08T05:10:15.174Z,93647.47
2023-12-08T05:11:11.820Z,93649.56
2023-12-08T05:12:08.654Z,93654.81
2023-12-08T05:13:05.462Z,93647.25
2023-12-08T05:14:02.092Z,93630.56
2023-12-08T05:14:58.909Z,93649.09
2023-12-08T05:15:55.516Z,93652.50
2023-12-08T05:16:52.212Z,93647.25
2023-12-08T05:17:50.041Z,93644.13
2023-12-08T05:18:46.916Z,93655.59
2023-12-08T05:19:44.011Z,93650.88
2023-12-08T05:20:41.095Z,93655.84
2023-12-08T05:21:37.858Z,93645.25
2023-12-08T05:22:34.515Z,93638.44
2023-12-08T05:23:31.119Z,93652.44
2023-12-08T05:24:27.738Z,93656.13
2023-12-08T05:25:24.373Z,93632.19
2023-12-08T05:26:21.342Z,93636.81
2023-12-08T05:27:18.024Z,93652.19
2023-12-08T05:28:14.694Z,93656.38
2023-12-08T05:29:11.328Z,93648.78
2023-12-08T05:30:08.830Z,93654.03
2023-12-08T05:31:06.186Z,93639.50
2023-12-08T05:32:03.388Z,93657.75
2023-12-08T05:33:00.481Z,93649.56
2023-12-08T05:33:57.427Z,93650.34
2023-12-08T05:34:54.551Z,93642.00
2023-12-08T05:35:51.450Z,93645.13
2023-12-08T05:36:48.181Z,93651.41
2023-12-08T05:37:44.834Z,93649.56
2023-12-08T05:38:41.580Z,93652.19
2023-12-08T05:39:38.293Z,93662.94
2023-12-08T05:40:35.046Z,93660.72
2023-12-08T05:41:31.728Z,93642.00
2023-12-08T05:42:28.414Z,93648.63
2023-12-08T05:43:25.054Z,93656.50
2023-12-08T05:44:21.682Z,93661.13
2023-12-08T05:45:18.463Z,93660.22
2023-12-08T05:46:15.156Z,93655.69
2023-12-08T05:47:11.815Z,93669.97
2023-12-08T05:48:08.704Z,93642.09
2023-12-08T05:49:05.527Z,93661.97
2023-12-08T05:50:03.627Z,93668.16
2023-12-08T05:51:00.459Z,93669.50
2023-12-08T05:51:57.232Z,93674.75
2023-12-08T05:52:53.925Z,93669.88
2023-12-08T05:53:50.606Z,93668.88
2023-12-08T05:54:47.396Z,93663.47
2023-12-08T05:55:44.021Z,93665.91
2023-12-08T05:56:41.163Z,93670.78
2023-12-08T05:57:37.913Z,93675.38
2023-12-08T05:58:34.642Z,93671.03
2023-12-08T05:59:31.385Z,93669.31
2023-12-08T06:00:28.035Z,93663.28
2023-12-08T06:01:24.712Z,93671.59
2023-12-08T06:02:22.726Z,93672.28
2023-12-08T06:03:19.351Z,93674.91
2023-12-08T06:04:16.027Z,93674.41
2023-12-08T06:05:14.254Z,93677.47
2023-12-08T06:06:10.992Z,93674.41
2023-12-08T06:07:07.940Z,93672.50
2023-12-08T06:08:04.881Z,93681.47
2023-12-08T06:09:02.044Z,93685.47
2023-12-08T06:09:58.669Z,93684.59
2023-12-08T06:10:55.288Z,93680.75
2023-12-08T06:11:52.146Z,93680.75
2023-12-08T06:12:50.249Z,93686.31
2023-12-08T06:13:46.854Z,93682.66
2023-12-08T06:14:43.512Z,93687.16
2023-12-08T06:15:40.369Z,93680.56
2023-12-08T06:16:37.700Z,93680.75
2023-12-08T06:17:34.485Z,93688.09
2023-12-08T06:18:31.492Z,93667.34
2023-12-08T06:19:28.171Z,93685.72
2023-12-08T06:20:24.808Z,93687.63
2023-12-08T06:21:21.380Z,93693.88
2023-12-08T06:22:18.006Z,93690.13
2023-12-08T06:23:14.922Z,93693.53
2023-12-08T06:24:11.737Z,93685.19
2023-12-08T06:25:08.813Z,93685.53
2023-12-08T06:26:05.605Z,93696.28
2023-12-08T06:27:02.235Z,93696.94
2023-12-08T06:27:58.894Z,93693.47
2023-12-08T06:28:55.657Z,93690.78
2023-12-08T06:29:52.266Z,93697.22
2023-12-08T06:30:49.110Z,93683.81
2023-12-08T06:31:45.965Z,93700.75
2023-12-08T06:32:42.682Z,93702.84
2023-12-08T06:33:39.574Z,93700.81
2023-12-08T06:34:36.417Z,93701.09
2023-12-08T06:35:33.132Z,93700.47
2023-12-08T06:36:29.743Z,93700.75
2023-12-08T06:37:26.645Z,93698.97
2023-12-08T06:38:23.462Z,93698.78
2023-12-08T06:39:20.153Z,93705.78
2023-12-08T06:40:16.895Z,93703.31
2023-12-08T06:41:13.610Z,93703.81
2023-12-08T06:42:10.393Z,93689.72
2023-12-08T06:43:07.050Z,93707.66
2023-12-08T06:44:03.751Z,93700.06
2023-12-08T06:45:00.520Z,93685.09
2023-12-08T06:45:57.951Z,93675.09
2023-12-08T06:46:54.685Z,93699.63
2023-12-08T06:47:51.494Z,93705.19
2023-12-08T06:48:48.476Z,93705.81
2023-12-08T06:49:45.353Z,93700.44
2023-12-08T06:50:42.180Z,93701.97
2023-12-08T06:51:38.834Z,93711.66
2023-12-08T06:52:35.491Z,93700.13
2023-12-08T06:53:32.179Z,93703.09
2023-12-08T06:54:28.808Z,93704.56
2023-12-08T06:55:26.228Z,93706.78
2023-12-08T06:56:23.315Z,93684.63
2023-12-08T06:57:19.952Z,93710.47
2023-12-08T06:58:16.644Z,93711.63
2023-12-08T06:59:13.299Z,93687.06
2023-12-08T07:00:11.888Z,93704.09
2023-12-08T07:01:08.750Z,93705.34
2023-12-08T07:02:05.474Z,93709.66
2023-12-08T07:03:02.314Z,93711.66
2023-12-08T07:03:59.048Z,93710.59
2023-12-08T07:04:55.683Z,93707.50
2023-12-08T07:05:52.378Z,93708.31
2023-12-08T07:06:49.102Z,93709.81
2023-12-08T07:07:46.153Z,93712.72
2023-12-08T07:08:42.863Z,93702.53
2023-12-08T07:09:39.633Z,93715.63
2023-12-08T07:10:37.080Z,93712.94
2023-12-08T07:11:34.883Z,93706.41
2023-12-08T07:12:31.747Z,93722.31
2023-12-08T07:13:28.474Z,93712.63
2023-12-08T07:14:25.219Z,93712.69
2023-12-08T07:15:21.978Z,93718.41
2023-12-08T07:16:18.854Z,93710.53
2023-12-08T07:17:15.613Z,93710.88
2023-12-08T07:18:12.550Z,93713.06
2023-12-08T07:19:09.399Z,93722.00
2023-12-08T07:20:07.731Z,93703.69
2023-12-08T07:21:05.556Z,93718.06
2023-12-08T07:22:02.250Z,93714.66
2023-12-08T07:22:58.951Z,93709.41
2023-12-08T07:23:55.765Z,93710.84
2023-12-08T07:24:52.652Z,93711.03
2023-12-08T07:25:49.300Z,93712.63
2023-12-08T07:26:45.951Z,93706.06
2023-12-08T07:27:43.879Z,93714.19
2023-12-08T07:28:40.649Z,93711.25
2023-12-08T07:29:38.107Z,93711.97
2023-12-08T07:30:34.859Z,93713.09
2023-12-08T07:31:31.516Z,93718.59
2023-12-08T07:32:28.213Z,93701.44
2023-12-08T07:33:25.150Z,93709.16
2023-12-08T07:34:22.074Z,93706.00
2023-12-08T07:35:18.779Z,93714.59
2023-12-08T07:36:15.534Z,93714.41
2023-12-08T07:37:12.170Z,93715.69
2023-12-08T07:38:08.788Z,93704.19
2023-12-08T07:39:05.725Z,93708.88
2023-12-08T07:40:02.375Z,93719.31
2023-12-08T07:40:59.041Z,93696.94
2023-12-08T07:41:56.267Z,93715.38
2023-12-08T07:42:52.989Z,93714.53
2023-12-08T07:43:50.065Z,93713.88
2023-12-08T07:44:47.158Z,93716.03
2023-12-08T07:45:43.834Z,93698.53
2023-12-08T07:46:40.599Z,93720.53
2023-12-08T07:47:39.212Z,93711.66
2023-12-08T07:48:36.106Z,93716.91
2023-12-08T07:49:32.961Z,93713.50
2023-12-08T07:50:29.614Z,93718.00
2023-12-08T07:51:26.305Z,93703.31
2023-12-08T07:52:22.919Z,93724.09
2023-12-08T07:53:19.736Z,93719.50
2023-12-08T07:54:16.431Z,93714.03
2023-12-08T07:55:13.241Z,93720.41
2023-12-08T07:56:10.132Z,93719.69
2023-12-08T07:57:07.010Z,93719.97
2023-12-08T07:58:04.836Z,93715.84
2023-12-08T07:59:01.773Z,93726.00
2023-12-08T07:59:59.302Z,93722.25
2023-12-08T08:00:55.934Z,93724.59
2023-12-08T08:01:53.036Z,93720.16
2023-12-08T08:02:50.038Z,93721.28
2023-12-08T08:03:46.851Z,93719.25
2023-12-08T08:04:43.603Z,93716.56
2023-12-08T08:05:40.295Z,93715.28
2023-12-08T08:06:37.119Z,93714.94
2023-12-08T08:07:34.132Z,93686.94
2023-12-08T08:08:31.060Z,93719.78
2023-12-08T08:09:27.699Z,93705.69
2023-12-08T08:10:24.293Z,93717.69
2023-12-08T08:11:20.981Z,93715.84
2023-12-08T08:12:17.859Z,93711.16
2023-12-08T08:13:15.262Z,93715.78
2023-12-08T08:14:12.225Z,93714.53
2023-12-08T08:15:09.470Z,93714.88
2023-12-08T08:16:06.489Z,93714.25
2023-12-08T08:17:03.268Z,93706.56
2023-12-08T08:18:00.061Z,93709.47
2023-12-08T08:18:56.893Z,93711.31
2023-12-08T08:19:53.643Z,93708.91
2023-12-08T08:20:50.578Z,93699.50
2023-12-08T08:22:26.800Z,93688.81
2023-12-08T08:23:03.929Z,93696.03
2023-12-08T08:24:00.844Z,93703.63
2023-12-08T08:24:58.335Z,93682.66
2023-12-08T08:25:55.933Z,93674.38
2023-12-08T08:26:53.303Z,93705.88
2023-12-08T08:27:54.073Z,93699.63
2023-12-08T08:28:50.887Z,93682.13
2023-12-08T08:29:47.545Z,93696.22
2023-12-08T08:30:47.631Z,93697.72
2023-12-08T08:31:44.272Z,93694.09
2023-12-08T08:32:40.989Z,93690.00
2023-12-08T08:33:37.870Z,93693.84
2023-12-08T08:34:34.809Z,93700.28
2023-12-08T08:35:31.628Z,93678.75
2023-12-08T08:36:28.331Z,93697.03
2023-12-08T08:37:26.230Z,93681.13
2023-12-08T08:38:23.069Z,93686.09
2023-12-08T08:39:19.961Z,93690.94
2023-12-08T08:40:16.698Z,93697.59
2023-12-08T08:41:15.322Z,93694.47
2023-12-08T08:42:12.628Z,93698.44
2023-12-08T08:43:09.395Z,93693.53
2023-12-08T08:44:06.048Z,93693.13
2023-12-08T08:45:02.672Z,93690.22
2023-12-08T08:45:59.319Z,93687.09
2023-12-08T08:46:55.945Z,93688.31
2023-12-08T08:47:52.855Z,93683.41
2023-12-08T08:48:49.867Z,93682.56
2023-12-08T08:49:46.843Z,93676.16
2023-12-08T08:50:49.616Z,93684.63
2023-12-08T08:51:47.757Z,93681.50
2023-12-08T08:52:44.446Z,93680.44
2023-12-08T08:53:41.127Z,93679.38
2023-12-08T08:54:37.725Z,93669.31
2023-12-08T08:55:36.154Z,93673.19
2023-12-08T08:56:33.094Z,93676.59
2023-12-08T08:57:30.053Z,93667.31
2023-12-08T08:58:26.936Z,93674.97
2023-12-08T08:59:23.709Z,93675.19
2023-12-08T09:00:22.754Z,93673.41
2023-12-08T09:01:19.506Z,93668.72
2023-12-08T09:02:16.232Z,93657.59
2023-12-08T09:03:12.900Z,93665.88
2023-12-08T09:04:09.698Z,93666.38
2023-12-08T09:05:07.095Z,93667.84
2023-12-08T09:06:04.030Z,93659.97
2023-12-08T09:07:00.816Z,93656.56
2023-12-08T09:07:58.175Z,93642.47
2023-12-08T09:08:54.888Z,93656.84
2023-12-08T09:09:52.024Z,93663.59
2023-12-08T09:10:51.684Z,93656.13
2023-12-08T09:11:48.371Z,93651.97
2023-12-08T09:12:45.128Z,93654.47
2023-12-08T09:13:41.815Z,93660.22
2023-12-08T09:14:39.558Z,93655.94
2023-12-08T09:15:36.252Z,93665.69
2023-12-08T09:16:32.920Z,93651.19
2023-12-08T09:17:29.576Z,93662.16
2023-12-08T09:18:26.420Z,93655.91
2023-12-08T09:19:23.272Z,93656.13
2023-12-08T09:20:20.501Z,93655.34
2023-12-08T09:21:17.897Z,93657.78
2023-12-08T09:22:15.815Z,93658.56
2023-12-08T09:23:12.906Z,93656.28
2023-12-08T09:24:10.468Z,93657.25
2023-12-08T09:25:08.209Z,93656.03
2023-12-08T09:26:04.889Z,93655.09
2023-12-08T09:27:02.512Z,93653.94
2023-12-08T09:27:59.277Z,93655.22
2023-12-08T09:28:56.008Z,93658.31
2023-12-08T09:29:52.919Z,93647.19
2023-12-08T09:30:49.544Z,93653.13
2023-12-08T09:31:46.735Z,93654.03
2023-12-08T09:32:43.882Z,93651.13
2023-12-08T09:33:43.230Z,93646.75
2023-12-08T09:34:40.352Z,93652.22
2023-12-08T09:35:37.341Z,93642.75
2023-12-08T09:36:35.073Z,93647.44
2023-12-08T09:37:36.419Z,93641.22
2023-12-08T09:38:35.048Z,93646.97
2023-12-08T09:39:33.186Z,93634.59
2023-12-08T09:40:32.842Z,93636.84
2023-12-08T09:41:31.843Z,93642.78
2023-12-08T09:42:37.465Z,93644.63
2023-12-08T09:43:42.923Z,93645.97
2023-12-08T09:44:39.625Z,93642.09
2023-12-08T09:45:39.059Z,93644.31
2023-12-08T09:46:36.355Z,93633.72
2023-12-08T09:47:37.120Z,93636.13
2023-12-08T09:48:37.856Z,93640.91
2023-12-08T09:49:45.636Z,93640.75
2023-12-08T09:50:42.648Z,93635.53
2023-12-08T09:51:40.065Z,93654.41
2023-12-08T09:52:36.889Z,93640.63
2023-12-08T09:53:33.884Z,93637.44
2023-12-08T09:54:32.341Z,93632.63
2023-12-08T09:55:30.294Z,93640.03
2023-12-08T09:56:29.665Z,93636.72
2023-12-08T09:57:30.350Z,93621.22
2023-12-08T09:58:28.171Z,93636.16
2023-12-08T09:59:28.450Z,93628.94
2023-12-08T10:00:25.471Z,93629.78
2023-12-08T10:01:22.153Z,93623.47
2023-12-08T10:02:19.797Z,93628.22
2023-12-08T10:03:16.549Z,93628.75
2023-12-08T10:04:13.792Z,93620.34
2023-12-08T10:05:12.272Z,93623.25
2023-12-08T10:06:11.129Z,93617.69
2023-12-08T10:07:11.574Z,93620.44
2023-12-08T10:08:10.952Z,93617.25
2023-12-08T10:09:08.755Z,93615.44
2023-12-08T10:10:06.349Z,93602.25
2023-12-08T10:11:03.102Z,93608.28
2023-12-08T10:12:00.323Z,93604.84
2023-12-08T10:12:59.440Z,93585.63
2023-12-08T10:13:56.265Z,93599.53
2023-12-08T10:14:55.681Z,93596.78
2023-12-08T10:15:52.401Z,93602.19
2023-12-08T10:16:49.222Z,93598.41
2023-12-08T10:17:53.774Z,93608.31
2023-12-08T10:18:51.036Z,93605.22
2023-12-08T10:19:50.334Z,93589.72
2023-12-08T10:20:46.990Z,93599.09
2023-12-08T10:21:43.636Z,93602.91
2023-12-08T10:23:00.548Z,93601.41
2023-12-08T10:24:03.764Z,93598.09
2023-12-08T10:25:01.766Z,93599.16
2023-12-08T10:25:58.429Z,93602.31
2023-12-08T10:26:55.205Z,93575.78
2023-12-08T10:27:54.531Z,93602.84
2023-12-08T10:28:57.994Z,93598.63
2023-12-08T10:29:54.745Z,93600.94
2023-12-08T10:30:53.169Z,93595.41
2023-12-08T10:31:51.723Z,93593.19
2023-12-08T10:32:49.454Z,93596.28
2023-12-08T10:33:46.398Z,93598.44
2023-12-08T10:34:43.056Z,93602.06
2023-12-08T10:35:39.958Z,93588.34
2023-12-08T10:36:38.284Z,93593.53
2023-12-08T10:37:36.538Z,93602.19
2023-12-08T10:38:33.279Z,93592.34
2023-12-08T10:39:30.711Z,93596.38
2023-12-08T10:40:27.486Z,93581.84
2023-12-08T10:41:24.196Z,93588.03
2023-12-08T10:42:20.877Z,93599.66
2023-12-08T10:43:24.765Z,93594.31
2023-12-08T10:44:26.730Z,93581.47
2023-12-08T10:45:24.341Z,93593.50
2023-12-08T10:46:21.887Z,93582.91
2023-12-08T10:47:18.823Z,93581.50
2023-12-08T10:48:16.042Z,93590.69
2023-12-08T10:49:17.178Z,93582.84
2023-12-08T10:50:14.416Z,93573.00
2023-12-08T10:51:15.369Z,93590.47
2023-12-08T10:52:13.385Z,93586.53
2023-12-08T10:53:10.942Z,93583.00
2023-12-08T10:54:08.289Z,93588.66
2023-12-08T10:55:06.823Z,93583.41
2023-12-08T10:56:10.630Z,93588.25
2023-12-08T10:57:08.588Z,93584.47
2023-12-08T10:58:08.901Z,93586.28
2023-12-08T10:59:10.946Z,93586.69
2023-12-08T11:00:19.075Z,93585.22
2023-12-08T11:01:16.226Z,93581.53
2023-12-08T11:02:22.337Z,93574.72
2023-12-08T11:03:21.745Z,93580.53
2023-12-08T11:04:22.830Z,93580.94
2023-12-08T11:05:44.485Z,93579.38
2023-12-08T11:07:13.797Z,93576.69
2023-12-08T11:08:14.757Z,93575.53
2023-12-08T11:09:13.585Z,93583.16
2023-12-08T11:10:13.449Z,93573.09
2023-12-08T11:11:11.196Z,93553.75
2023-12-08T11:12:14.037Z,93565.19
2023-12-08T11:13:17.846Z,93574.53
2023-12-08T11:14:17.433Z,93569.09
2023-12-08T11:15:20.189Z,93567.22
2023-12-08T11:16:24.692Z,93575.13